createdAt,value
2023-01-04T00:01:50.451Z,2.17
2023-01-04T00:04:16.881Z,2.00
2023-01-04T00:06:43.328Z,2.35
2023-01-04T00:09:09.763Z,2.00
2023-01-04T00:11:36.210Z,2.10
2023-01-04T00:14:02.941Z,2.35
2023-01-04T00:16:29.534Z,2.33
2023-01-04T00:18:57.169Z,2.05
2023-01-04T00:21:29.220Z,2.00
2023-01-04T00:23:59.977Z,2.13
2023-01-04T00:26:29.288Z,2.10
2023-01-04T00:29:01.209Z,2.50
2023-01-04T00:31:28.894Z,1.98
2023-01-04T00:33:57.027Z,1.98
2023-01-04T00:36:24.474Z,2.10
2023-01-04T00:39:07.435Z,2.03
2023-01-04T00:42:01.523Z,1.95
2023-01-04T00:44:29.021Z,2.17
2023-01-04T00:46:55.635Z,2.20
2023-01-04T00:49:22.164Z,1.90
2023-01-04T00:51:48.760Z,1.90
2023-01-04T00:54:16.630Z,1.90
2023-01-04T00:56:44.065Z,2.40
2023-01-04T00:59:12.595Z,1.90
2023-01-04T01:01:39.752Z,1.70
2023-01-04T01:04:06.829Z,1.98
2023-01-04T01:06:34.010Z,1.85
2023-01-04T01:09:01.236Z,1.90
2023-01-04T01:11:28.556Z,1.92
2023-01-04T01:13:55.278Z,1.73
2023-01-04T01:16:51.700Z,2.05
2023-01-04T01:19:10.439Z,1.63
2023-01-04T01:21:38.044Z,2.10
2023-01-04T01:24:05.738Z,1.70
2023-01-04T01:26:32.352Z,1.80
2023-01-04T01:28:59.152Z,1.88
2023-01-04T01:31:28.436Z,1.80
2023-01-04T01:33:56.710Z,1.95
2023-01-04T01:36:26.078Z,1.70
2023-01-04T01:38:53.524Z,1.67
2023-01-04T01:41:21.621Z,1.92
2023-01-04T01:44:26.404Z,1.70
2023-01-04T01:46:54.764Z,1.85
2023-01-04T01:49:29.042Z,1.60
2023-01-04T01:51:59.075Z,1.42
2023-01-04T01:54:47.656Z,1.65
2023-01-04T01:57:19.631Z,1.45
2023-01-04T01:59:48.494Z,1.60
2023-01-04T02:02:15.087Z,1.42
2023-01-04T02:04:46.502Z,1.75
2023-01-04T02:07:19.211Z,1.35
2023-01-04T02:09:47.095Z,1.70
2023-01-04T02:12:14.362Z,1.80
2023-01-04T02:14:43.978Z,1.70
2023-01-04T02:17:38.097Z,1.52
2023-01-04T02:20:32.844Z,1.85
2023-01-04T02:23:47.347Z,1.50
2023-01-04T02:26:22.582Z,1.55
2023-01-04T02:29:17.781Z,1.38
2023-01-04T02:31:57.301Z,1.42
2023-01-04T02:34:41.427Z,1.40
2023-01-04T02:37:25.702Z,1.42
2023-01-04T02:39:54.896Z,1.50
2023-01-04T02:42:52.494Z,1.50
2023-01-04T02:45:24.532Z,1.48
2023-01-04T02:48:10.053Z,1.87
2023-01-04T02:50:57.023Z,1.60
2023-01-04T02:53:31.694Z,1.52
2023-01-04T02:56:16.248Z,1.50
2023-01-04T02:58:55.491Z,1.40
2023-01-04T03:02:00.370Z,1.38
2023-01-04T03:04:57.802Z,1.40
2023-01-04T03:07:32.174Z,1.40
2023-01-04T03:10:07.712Z,1.45
2023-01-04T03:12:44.524Z,1.52
2023-01-04T03:15:20.631Z,1.58
2023-01-04T03:17:52.984Z,1.63
2023-01-04T03:20:20.705Z,1.40
2023-01-04T03:23:16.868Z,1.67
2023-01-04T03:26:13.297Z,1.40
2023-01-04T03:29:00.703Z,1.50
2023-01-04T03:31:59.371Z,1.45
2023-01-04T03:34:45.042Z,1.30
2023-01-04T03:37:19.290Z,1.48
2023-01-04T03:40:18.754Z,1.30
2023-01-04T03:43:38.364Z,1.60
2023-01-04T03:46:26.518Z,1.30
2023-01-04T03:49:09.167Z,1.38
2023-01-04T03:51:38.466Z,1.42
2023-01-04T03:54:11.864Z,1.30
2023-01-04T03:56:42.003Z,1.25
2023-01-04T03:59:10.564Z,1.58
2023-01-04T04:01:37.403Z,1.20
2023-01-04T04:04:23.271Z,1.40
2023-01-04T04:07:08.477Z,1.30
2023-01-04T04:09:35.285Z,1.40
2023-01-04T04:12:01.834Z,1.55
2023-01-04T04:14:28.411Z,1.33
2023-01-04T04:16:55.040Z,1.02
2023-01-04T04:19:22.116Z,1.20
2023-01-04T04:21:48.762Z,1.40
2023-01-04T04:24:24.256Z,1.25
2023-01-04T04:26:52.210Z,1.20
2023-01-04T04:29:18.640Z,1.40
2023-01-04T04:31:45.172Z,1.50
2023-01-04T04:34:11.917Z,1.00
2023-01-04T04:36:38.824Z,1.20
2023-01-04T04:39:05.590Z,1.65
2023-01-04T04:41:38.464Z,1.30
2023-01-04T04:44:06.284Z,1.10
2023-01-04T04:46:32.810Z,1.33
2023-01-04T04:48:59.293Z,1.40
2023-01-04T04:51:25.775Z,1.30
2023-01-04T04:53:52.256Z,1.20
2023-01-04T04:56:18.755Z,1.17
2023-01-04T04:58:45.209Z,1.40
2023-01-04T05:01:11.927Z,1.13
2023-01-04T05:03:38.675Z,1.15
2023-01-04T05:06:05.349Z,1.10
2023-01-04T05:08:32.153Z,1.10
2023-01-04T05:10:58.598Z,1.15
2023-01-04T05:13:25.149Z,1.10
2023-01-04T05:15:54.281Z,1.20
2023-01-04T05:18:22.192Z,1.40
2023-01-04T05:20:49.140Z,1.27
2023-01-04T05:23:18.057Z,1.30
2023-01-04T05:25:44.611Z,1.20
2023-01-04T05:28:11.225Z,1.17
2023-01-04T05:30:56.418Z,1.10
2023-01-04T05:33:25.906Z,1.10
2023-01-04T05:35:53.885Z,1.00
2023-01-04T05:38:21.159Z,1.15
2023-01-04T05:40:48.482Z,1.10
2023-01-04T05:43:15.699Z,1.00
2023-01-04T05:45:52.562Z,1.10
2023-01-04T05:48:20.274Z,1.13
2023-01-04T05:50:47.101Z,1.15
2023-01-04T05:53:14.754Z,1.08
2023-01-04T05:55:41.286Z,1.02
2023-01-04T05:58:07.811Z,1.08
2023-01-04T06:00:34.343Z,1.10
2023-01-04T06:03:00.932Z,1.30
2023-01-04T06:05:27.726Z,1.30
2023-01-04T06:07:54.271Z,1.00
2023-01-04T06:10:21.242Z,0.85
2023-01-04T06:12:48.543Z,1.00
2023-01-04T06:15:15.541Z,0.95
2023-01-04T06:17:42.049Z,1.00
2023-01-04T06:20:10.209Z,1.10
2023-01-04T06:22:37.144Z,1.10
2023-01-04T06:25:04.606Z,1.00
2023-01-04T06:27:31.196Z,1.00
2023-01-04T06:29:57.687Z,1.00
2023-01-04T06:32:24.323Z,1.10
2023-01-04T06:34:50.944Z,0.90
2023-01-04T06:37:17.596Z,1.00
2023-01-04T06:39:44.143Z,0.90
2023-01-04T06:42:30.639Z,1.00
2023-01-04T06:44:57.273Z,0.90
2023-01-04T06:47:23.746Z,0.95
2023-01-04T06:49:50.241Z,1.10
2023-01-04T06:52:16.728Z,1.17
2023-01-04T06:54:43.303Z,1.13
2023-01-04T06:57:09.805Z,0.95
2023-01-04T06:59:36.459Z,0.98
2023-01-04T07:02:03.194Z,1.05
2023-01-04T07:04:29.823Z,0.93
2023-01-04T07:06:57.751Z,0.95
2023-01-04T07:09:24.428Z,1.13
2023-01-04T07:11:50.977Z,1.00
2023-01-04T07:14:17.489Z,1.00
2023-01-04T07:16:43.965Z,0.90
2023-01-04T07:19:10.453Z,0.73
2023-01-04T07:21:36.896Z,0.82
2023-01-04T07:24:03.385Z,0.82
2023-01-04T07:26:29.824Z,1.10
2023-01-04T07:29:14.556Z,0.80
2023-01-04T07:31:41.932Z,0.77
2023-01-04T07:34:08.482Z,0.90
2023-01-04T07:36:34.980Z,0.90
2023-01-04T07:39:01.729Z,0.80
2023-01-04T07:41:28.184Z,0.90
2023-01-04T07:43:54.753Z,1.02
2023-01-04T07:46:22.355Z,1.20
2023-01-04T07:48:48.955Z,0.85
2023-01-04T07:51:16.232Z,1.00
2023-01-04T07:53:42.660Z,0.90
2023-01-04T07:56:12.478Z,0.90
2023-01-04T07:58:43.387Z,0.80
2023-01-04T08:01:13.269Z,0.80
2023-01-04T08:03:41.153Z,0.80
2023-01-04T08:06:10.417Z,0.95
2023-01-04T08:08:37.457Z,0.90
2023-01-04T08:11:09.425Z,0.93
2023-01-04T08:13:35.953Z,0.90
2023-01-04T08:16:03.105Z,0.80
2023-01-04T08:18:29.884Z,1.00
2023-01-04T08:21:07.706Z,0.80
2023-01-04T08:23:36.397Z,22.45
2023-01-04T08:26:09.136Z,25.30
2023-01-04T08:28:36.413Z,14.00
2023-01-04T08:31:08.741Z,191.13
2023-01-04T08:33:37.044Z,122.75
2023-01-04T08:36:08.481Z,80.85
2023-01-04T08:41:47.295Z,115.68
2023-01-04T08:44:07.940Z,213.73
2023-01-04T08:46:34.432Z,166.55
2023-01-04T08:49:00.912Z,227.30
2023-01-04T08:51:28.614Z,269.20
2023-01-04T08:53:55.136Z,301.20
2023-01-04T08:56:21.607Z,252.25
2023-01-04T08:58:48.068Z,279.35
2023-01-04T09:01:14.582Z,374.20
2023-01-04T09:03:42.097Z,356.60
2023-01-04T09:06:14.021Z,307.27
2023-01-04T09:08:42.622Z,314.00
2023-01-04T09:11:14.690Z,282.77
2023-01-04T09:13:41.916Z,288.05
2023-01-04T09:16:12.189Z,256.77
2023-01-04T09:18:39.146Z,239.63
2023-01-04T09:21:11.300Z,232.80
2023-01-04T09:23:38.255Z,222.15
2023-01-04T09:26:21.568Z,214.80
2023-01-04T09:28:49.622Z,270.38
2023-01-04T09:31:18.254Z,254.57
2023-01-04T09:34:13.558Z,288.13
2023-01-04T09:36:32.004Z,286.27
2023-01-04T09:38:58.486Z,270.98
2023-01-04T09:41:30.832Z,292.67
2023-01-04T09:44:00.893Z,316.70
2023-01-04T09:46:42.382Z,336.23
2023-01-04T09:49:20.466Z,340.58
2023-01-04T09:52:09.646Z,332.45
2023-01-04T09:54:57.612Z,336.38
2023-01-04T09:57:35.137Z,332.48
2023-01-04T10:00:19.917Z,314.83
2023-01-04T10:02:51.693Z,333.73
2023-01-04T10:05:22.581Z,311.40
2023-01-04T10:07:49.285Z,306.90
2023-01-04T10:10:19.015Z,289.52
2023-01-04T10:13:21.490Z,286.70
2023-01-04T10:15:54.201Z,277.98
2023-01-04T10:21:46.970Z,253.43
2023-01-04T10:24:38.475Z,251.15
2023-01-04T10:27:26.675Z,238.38
2023-01-04T10:29:57.302Z,236.05
2023-01-04T10:32:39.410Z,231.63
2023-01-04T10:35:25.970Z,226.83
2023-01-04T10:38:01.085Z,219.32
2023-01-04T10:40:35.622Z,212.05
2023-01-04T10:43:19.120Z,200.70
2023-01-04T10:45:59.934Z,198.40
2023-01-04T10:48:26.383Z,193.43
2023-01-04T10:50:58.307Z,189.10
2023-01-04T10:53:37.878Z,186.95
2023-01-04T10:56:25.382Z,161.93
2023-01-04T10:59:22.787Z,159.10
2023-01-04T11:01:59.301Z,149.05
2023-01-04T11:04:32.452Z,144.25
2023-01-04T11:07:25.164Z,143.13
2023-01-04T11:09:57.967Z,142.05
2023-01-04T11:12:24.583Z,140.73
2023-01-04T11:14:52.132Z,139.68
2023-01-04T11:17:20.455Z,135.63
2023-01-04T11:19:47.582Z,136.77
2023-01-04T11:22:30.173Z,130.60
2023-01-04T11:25:34.572Z,131.55
2023-01-04T11:28:16.150Z,125.88
2023-01-04T11:30:54.902Z,121.63
2023-01-04T11:33:23.787Z,117.32
2023-01-04T11:35:56.855Z,117.82
2023-01-04T11:38:27.596Z,114.35
2023-01-04T11:41:07.302Z,112.88
2023-01-04T11:43:39.479Z,109.90
2023-01-04T11:46:07.272Z,109.47
2023-01-04T11:48:38.638Z,106.28
2023-01-04T11:51:17.149Z,103.32
2023-01-04T11:54:16.565Z,99.25
2023-01-04T11:57:12.020Z,94.70
2023-01-04T11:59:39.099Z,94.13
2023-01-04T12:05:28.047Z,88.75
2023-01-04T12:10:26.659Z,84.25
2023-01-04T12:13:00.376Z,83.60
2023-01-04T12:16:19.531Z,79.72
2023-01-04T12:18:46.687Z,79.40
2023-01-04T12:21:19.215Z,77.45
2023-01-04T12:23:47.128Z,74.65
2023-01-04T12:26:14.738Z,74.28
2023-01-04T12:28:44.499Z,72.13
2023-01-04T12:31:20.969Z,69.20
2023-01-04T12:33:52.409Z,69.00
2023-01-04T12:36:20.891Z,68.15
2023-01-04T12:38:59.987Z,65.10
2023-01-04T12:41:35.495Z,63.75
2023-01-04T12:44:03.228Z,62.22
2023-01-04T12:46:48.361Z,61.15
2023-01-04T12:49:34.173Z,60.72
2023-01-04T12:52:30.590Z,58.75
2023-01-04T12:54:57.935Z,56.40
2023-01-04T12:57:37.908Z,55.00
2023-01-04T13:00:15.635Z,53.60
2023-01-04T13:02:52.427Z,53.63
2023-01-04T13:05:54.971Z,49.03
2023-01-04T13:08:14.972Z,52.03
2023-01-04T13:10:47.228Z,49.95
2023-01-04T13:13:22.639Z,49.25
2023-01-04T13:16:20.615Z,49.00
2023-01-04T13:18:47.572Z,45.60
2023-01-04T13:21:16.997Z,46.47
2023-01-04T13:23:53.112Z,44.33
2023-01-04T13:26:31.791Z,44.17
2023-01-04T13:29:08.131Z,42.63
2023-01-04T13:31:46.053Z,43.83
2023-01-04T13:34:18.156Z,40.70
2023-01-04T13:36:44.607Z,40.20
2023-01-04T13:39:12.623Z,41.20
2023-01-04T13:41:43.759Z,39.90
2023-01-04T13:44:33.137Z,39.53
2023-01-04T13:47:12.320Z,38.95
2023-01-04T13:49:40.777Z,36.92
2023-01-04T13:52:50.552Z,38.70
2023-01-04T13:55:32.231Z,36.05
2023-01-04T13:58:00.980Z,38.08
2023-01-04T14:00:35.827Z,35.75
2023-01-04T14:03:13.060Z,33.85
2023-01-04T14:05:47.264Z,35.35
2023-01-04T14:08:23.611Z,34.35
2023-01-04T14:10:50.563Z,33.92
2023-01-04T14:13:19.226Z,32.55
2023-01-04T14:15:45.962Z,33.85
2023-01-04T14:18:27.448Z,32.95
2023-01-04T14:20:54.114Z,31.88
2023-01-04T14:23:32.720Z,31.92
2023-01-04T14:25:59.380Z,31.00
2023-01-04T14:28:33.153Z,31.13
2023-01-04T14:30:59.788Z,30.23
2023-01-04T14:33:36.053Z,29.13
2023-01-04T14:36:09.102Z,28.70
2023-01-04T14:38:48.927Z,29.00
2023-01-04T14:41:18.219Z,28.63
2023-01-04T14:43:53.411Z,27.63
2023-01-04T14:46:21.953Z,27.73
2023-01-04T14:48:49.421Z,26.33
2023-01-04T14:51:23.814Z,27.02
2023-01-04T14:53:51.154Z,26.38
2023-01-04T14:56:18.931Z,25.55
2023-01-04T14:58:45.515Z,25.52
2023-01-04T15:01:12.529Z,25.67
2023-01-04T15:03:39.657Z,26.52
2023-01-04T15:06:06.900Z,24.98
2023-01-04T15:08:33.953Z,23.67
2023-01-04T15:11:00.595Z,24.30
2023-01-04T15:13:27.227Z,24.35
2023-01-04T15:15:53.846Z,24.02
2023-01-04T15:18:20.492Z,22.67
2023-01-04T15:20:47.125Z,22.77
2023-01-04T15:23:13.767Z,21.85
2023-01-04T15:25:41.278Z,21.80
2023-01-04T15:28:08.499Z,22.20
2023-01-04T15:30:35.222Z,21.58
2023-01-04T15:33:01.718Z,21.50
2023-01-04T15:35:28.305Z,20.35
2023-01-04T15:37:54.889Z,22.20
2023-01-04T15:40:21.509Z,20.90
2023-01-04T15:42:59.865Z,22.00
2023-01-04T15:45:37.808Z,20.70
2023-01-04T15:48:06.838Z,20.58
2023-01-04T15:50:36.029Z,20.65
2023-01-04T15:53:02.724Z,21.00
2023-01-04T15:55:34.157Z,17.73
2023-01-04T15:58:02.912Z,17.75
2023-01-04T16:00:29.501Z,17.83
2023-01-04T16:02:56.530Z,17.42
2023-01-04T16:05:23.101Z,18.67
2023-01-04T16:07:49.736Z,17.13
2023-01-04T16:10:16.398Z,17.58
2023-01-04T16:12:43.118Z,16.83
2023-01-04T16:15:15.238Z,16.70
2023-01-04T16:17:43.965Z,16.25
2023-01-04T16:20:13.183Z,16.30
2023-01-04T16:22:40.052Z,14.88
2023-01-04T16:25:10.872Z,15.85
2023-01-04T16:27:39.301Z,15.40
2023-01-04T16:30:09.408Z,15.57
2023-01-04T16:32:36.720Z,16.08
2023-01-04T16:35:04.370Z,15.55
2023-01-04T16:37:30.854Z,14.95
2023-01-04T16:40:06.274Z,14.98
2023-01-04T16:42:33.642Z,14.75
2023-01-04T16:45:00.135Z,14.23
2023-01-04T16:47:26.700Z,15.02
2023-01-04T16:49:53.507Z,14.95
2023-01-04T16:52:20.187Z,14.05
2023-01-04T16:54:46.757Z,14.48
2023-01-04T16:57:13.268Z,14.55
2023-01-04T16:59:39.708Z,12.88
2023-01-04T17:02:06.299Z,14.23
2023-01-04T17:04:32.944Z,13.77
2023-01-04T17:06:59.391Z,13.77
2023-01-04T17:09:25.964Z,13.73
2023-01-04T17:14:49.063Z,12.65
2023-01-04T17:17:18.644Z,12.90
2023-01-04T17:19:45.477Z,12.57
2023-01-04T17:22:11.994Z,12.32
2023-01-04T17:24:38.499Z,13.05
2023-01-04T17:27:05.039Z,12.07
2023-01-04T17:29:31.555Z,11.90
2023-01-04T17:31:58.177Z,11.95
2023-01-04T17:34:24.755Z,11.85
2023-01-04T17:36:51.278Z,11.57
2023-01-04T17:39:20.546Z,11.23
2023-01-04T17:41:47.114Z,11.27
2023-01-04T17:44:13.666Z,11.07
2023-01-04T17:46:40.203Z,10.77
2023-01-04T17:49:31.071Z,11.35
2023-01-04T17:51:55.814Z,11.50
2023-01-04T17:54:23.016Z,11.13
2023-01-04T17:56:49.560Z,10.90
2023-01-04T17:59:16.069Z,10.80
2023-01-04T18:01:42.804Z,10.13
2023-01-04T18:04:09.481Z,10.30
2023-01-04T18:06:36.900Z,10.20
2023-01-04T18:09:06.396Z,9.68
2023-01-04T18:11:33.316Z,10.13
2023-01-04T18:14:00.910Z,8.60
2023-01-04T18:16:29.871Z,9.32
2023-01-04T18:18:58.698Z,9.30
2023-01-04T18:21:31.192Z,8.73
2023-01-04T18:27:19.794Z,8.57
2023-01-04T18:29:33.485Z,8.82
2023-01-04T18:32:00.092Z,9.05
2023-01-04T18:34:26.997Z,8.63
2023-01-04T18:36:53.838Z,8.32
2023-01-04T18:39:20.927Z,8.57
2023-01-04T18:41:47.509Z,8.38
2023-01-04T18:47:02.580Z,7.93
2023-01-04T18:49:29.290Z,7.93
2023-01-04T18:51:55.847Z,7.85
2023-01-04T18:54:22.369Z,8.00
2023-01-04T18:56:49.144Z,7.30
2023-01-04T18:59:18.625Z,7.65
2023-01-04T19:01:45.811Z,8.10
2023-01-04T19:04:13.007Z,7.35
2023-01-04T19:06:40.584Z,6.97
2023-01-04T19:09:08.146Z,8.23
2023-01-04T19:11:35.647Z,7.18
2023-01-04T19:14:03.259Z,7.47
2023-01-04T19:16:31.173Z,7.10
2023-01-04T19:19:00.948Z,7.13
2023-01-04T19:21:28.547Z,6.47
2023-01-04T19:23:55.937Z,6.47
2023-01-04T19:26:23.173Z,7.28
2023-01-04T19:28:50.781Z,6.70
2023-01-04T19:31:20.117Z,6.50
2023-01-04T19:33:47.386Z,6.70
2023-01-04T19:36:16.041Z,5.75
2023-01-04T19:38:42.600Z,6.05
2023-01-04T19:41:26.546Z,6.90
2023-01-04T19:43:57.927Z,5.88
2023-01-04T19:46:24.593Z,6.68
2023-01-04T19:48:51.084Z,5.75
2023-01-04T19:51:17.739Z,5.72
2023-01-04T19:53:45.004Z,6.13
2023-01-04T19:56:13.499Z,5.68
2023-01-04T19:58:40.586Z,6.07
2023-01-04T20:01:07.353Z,5.57
2023-01-04T20:03:33.982Z,5.75
2023-01-04T20:06:04.760Z,6.00
2023-01-04T20:08:31.487Z,5.43
2023-01-04T20:10:59.704Z,5.38
2023-01-04T20:13:27.516Z,5.63
2023-01-04T20:15:54.348Z,4.70
2023-01-04T20:18:21.791Z,5.20
2023-01-04T20:20:48.317Z,5.07
2023-01-04T20:23:16.934Z,5.07
2023-01-04T20:25:49.546Z,5.20
2023-01-04T20:28:17.493Z,5.30
2023-01-04T20:30:44.042Z,5.07
2023-01-04T20:33:11.019Z,5.03
2023-01-04T20:35:38.920Z,4.90
2023-01-04T20:38:05.428Z,4.78
2023-01-04T20:40:32.188Z,5.13
2023-01-04T20:43:17.390Z,4.50
2023-01-04T20:45:45.388Z,4.75
2023-01-04T20:48:12.800Z,4.50
2023-01-04T20:50:39.663Z,4.80
2023-01-04T20:53:06.726Z,4.85
2023-01-04T20:55:40.170Z,4.28
2023-01-04T20:58:11.629Z,4.85
2023-01-04T21:00:39.335Z,4.20
2023-01-04T21:03:08.010Z,4.78
2023-01-04T21:05:37.545Z,4.38
2023-01-04T21:08:05.169Z,4.43
2023-01-04T21:10:32.159Z,4.47
2023-01-04T21:12:58.776Z,4.53
2023-01-04T21:15:25.417Z,4.00
2023-01-04T21:17:51.907Z,4.25
2023-01-04T21:20:18.531Z,3.63
2023-01-04T21:22:44.995Z,4.00
2023-01-04T21:25:11.456Z,3.95
2023-01-04T21:27:38.156Z,3.75
2023-01-04T21:30:05.289Z,4.20
2023-01-04T21:32:31.861Z,4.18
2023-01-04T21:34:58.609Z,4.03
2023-01-04T21:37:25.436Z,3.78
2023-01-04T21:39:51.946Z,3.88
2023-01-04T21:42:18.429Z,3.63
2023-01-04T21:44:44.907Z,3.80
2023-01-04T21:47:11.339Z,3.45
2023-01-04T21:49:43.569Z,3.38
2023-01-04T21:52:10.801Z,3.42
2023-01-04T21:54:38.226Z,3.13
2023-01-04T21:57:07.208Z,3.35
2023-01-04T21:59:34.584Z,3.85
2023-01-04T22:02:01.471Z,2.92
2023-01-04T22:04:28.197Z,3.20
2023-01-04T22:06:54.721Z,3.08
2023-01-04T22:09:21.433Z,3.63
2023-01-04T22:11:49.991Z,3.47
2023-01-04T22:14:17.584Z,3.20
2023-01-04T22:16:44.143Z,3.10
2023-01-04T22:19:14.551Z,3.22
2023-01-04T22:21:42.033Z,2.92
2023-01-04T22:24:12.984Z,2.85
2023-01-04T22:26:40.620Z,3.17
2023-01-04T22:29:07.294Z,3.05
2023-01-04T22:31:33.981Z,2.80
2023-01-04T22:34:00.772Z,2.88
2023-01-04T22:36:27.433Z,2.67
2023-01-04T22:38:55.747Z,2.63
2023-01-04T22:41:24.903Z,3.10
2023-01-04T22:43:59.844Z,3.22
2023-01-04T22:46:28.079Z,2.83
2023-01-04T22:48:54.804Z,3.08
2023-01-04T22:51:22.342Z,2.85
2023-01-04T22:53:49.318Z,2.97
2023-01-04T22:56:19.664Z,2.90
2023-01-04T22:58:52.502Z,2.70
2023-01-04T23:01:20.665Z,2.85
2023-01-04T23:03:47.626Z,2.72
2023-01-04T23:06:14.518Z,2.67
2023-01-04T23:08:41.254Z,2.45
2023-01-04T23:11:16.736Z,2.35
2023-01-04T23:13:43.633Z,2.63
2023-01-04T23:16:15.424Z,2.60
2023-01-04T23:18:41.950Z,2.40
2023-01-04T23:21:09.100Z,2.50
2023-01-04T23:23:35.662Z,2.75
2023-01-04T23:26:12.019Z,2.20
2023-01-04T23:28:38.654Z,2.65
2023-01-04T23:31:07.786Z,2.42
2023-01-04T23:33:36.831Z,2.28
2023-01-04T23:36:17.744Z,2.63
2023-01-04T23:38:49.389Z,2.45
2023-01-04T23:41:15.860Z,2.67
2023-01-04T23:43:42.430Z,2.75
2023-01-04T23:46:12.396Z,2.17
2023-01-04T23:48:39.192Z,2.40
2023-01-04T23:51:05.783Z,2.40
2023-01-04T23:53:32.284Z,2.50
2023-01-04T23:56:07.796Z,2.58
2023-01-04T23:58:34.465Z,2.13
